Mazarn, Arkansas
Current Conditions -  °F | °C
As of 11:53 AM on Wednesday 26 Nov 2014 (Local Time) from KHOT Reporting Station
Clear Clear  
Wind Chill: 56°   Ceiling: Unl
Heat Index: 56°   Visibility: 10mi
Dew Point: 34°   Wind: 7mph
Humidity: 44%   Direction: NA
Pressure: 30"   Gusts: NA
Location:  34.3467°N, 93.3187°W
Report Text: KHOT 261753Z AUTO VRB06KT 10SM CLR 13/01 A3000 RMK AO2 SLP161 T01330011 10133 21022 58013
Loading
Personal Weather Stations






























Interactive Weather Map New forecast layout! Learn more

10-Day Weather Forecast

Advertisements
Track Severe Weather on mobile